Terminal Aerodrome Forecast
Issued by NWS

Home | Current Version | Previous Version | Text Only | Print | Product List | Glossary On
Versions: 1 2 3 4 5 6 7 8 9 10 11 12 13 14
000
FTUS43 KTOP 230235 AAA
TAFFOE
TAF AMD
KFOE 230235Z 2303/2324 05006KT P6SM VCTS BKN050CB
      TEMPO 2303/2304 VRB20G40KT 2SM TSRA BKN050CB
     FM230800 07003KT P6SM SCT015 BKN090=

USA.gov is the U.S. government's official web portal to all federal, state and local government web resources and services.